sensor_id;sensor_type;location;lat;lon;timestamp;temperature;humidity
24614;DHT22;12760;46.296;25.290;2022-08-19T00:01:10;21.70;99.90
24614;DHT22;12760;46.296;25.290;2022-08-19T00:03:36;21.70;99.90
24614;DHT22;12760;46.296;25.290;2022-08-19T00:06:01;21.70;99.90
24614;DHT22;12760;46.296;25.290;2022-08-19T00:08:27;21.70;99.90
24614;DHT22;12760;46.296;25.290;2022-08-19T00:10:53;21.60;99.90
24614;DHT22;12760;46.296;25.290;2022-08-19T00:13:19;21.50;99.90
24614;DHT22;12760;46.296;25.290;2022-08-19T00:15:45;21.50;99.90
24614;DHT22;12760;46.296;25.290;2022-08-19T00:18:11;21.40;99.90
24614;DHT22;12760;46.296;25.290;2022-08-19T00:20:36;21.40;99.90
24614;DHT22;12760;46.296;25.290;2022-08-19T00:23:06;21.40;99.90
24614;DHT22;12760;46.296;25.290;2022-08-19T00:25:32;21.50;99.90
24614;DHT22;12760;46.296;25.290;2022-08-19T00:27:59;21.50;99.90
24614;DHT22;12760;46.296;25.290;2022-08-19T00:30:25;21.30;99.90
24614;DHT22;12760;46.296;25.290;2022-08-19T00:32:53;21.40;99.90
24614;DHT22;12760;46.296;25.290;2022-08-19T00:35:21;21.30;99.90
24614;DHT22;12760;46.296;25.290;2022-08-19T00:37:48;21.30;99.90
24614;DHT22;12760;46.296;25.290;2022-08-19T00:40:14;21.30;99.90
24614;DHT22;12760;46.296;25.290;2022-08-19T00:42:40;21.20;99.90
24614;DHT22;12760;46.296;25.290;2022-08-19T00:45:17;21.20;99.90
24614;DHT22;12760;46.296;25.290;2022-08-19T00:47:44;21.20;99.90
24614;DHT22;12760;46.296;25.290;2022-08-19T00:50:12;21.20;99.90
24614;DHT22;12760;46.296;25.290;2022-08-19T00:52:43;21.30;99.90
24614;DHT22;12760;46.296;25.290;2022-08-19T00:55:14;21.30;99.90
24614;DHT22;12760;46.296;25.290;2022-08-19T00:57:43;21.30;99.90
24614;DHT22;12760;46.296;25.290;2022-08-19T01:00:12;21.20;99.90
24614;DHT22;12760;46.296;25.290;2022-08-19T01:02:40;21.10;99.90
24614;DHT22;12760;46.296;25.290;2022-08-19T01:05:11;21.10;99.90
24614;DHT22;12760;46.296;25.290;2022-08-19T01:07:39;21.20;99.90
24614;DHT22;12760;46.296;25.290;2022-08-19T01:10:11;21.10;99.90
24614;DHT22;12760;46.296;25.290;2022-08-19T01:12:38;21.10;99.90
24614;DHT22;12760;46.296;25.290;2022-08-19T01:15:07;21.20;99.90
24614;DHT22;12760;46.296;25.290;2022-08-19T01:17:34;21.20;99.90
24614;DHT22;12760;46.296;25.290;2022-08-19T01:20:02;21.20;99.90
24614;DHT22;12760;46.296;25.290;2022-08-19T01:22:53;21.10;99.90
24614;DHT22;12760;46.296;25.290;2022-08-19T01:25:24;21.00;99.90
24614;DHT22;12760;46.296;25.290;2022-08-19T01:27:52;21.00;99.90
24614;DHT22;12760;46.296;25.290;2022-08-19T01:30:28;20.80;99.90
24614;DHT22;12760;46.296;25.290;2022-08-19T01:32:55;20.80;99.90
24614;DHT22;12760;46.296;25.290;2022-08-19T01:35:22;20.90;99.90
24614;DHT22;12760;46.296;25.290;2022-08-19T01:38:03;21.00;99.90
24614;DHT22;12760;46.296;25.290;2022-08-19T01:40:34;20.80;99.90
24614;DHT22;12760;46.296;25.290;2022-08-19T01:43:01;20.80;99.90
24614;DHT22;12760;46.296;25.290;2022-08-19T01:45:30;20.80;99.90
24614;DHT22;12760;46.296;25.290;2022-08-19T01:47:58;20.80;99.90
24614;DHT22;12760;46.296;25.290;2022-08-19T01:50:24;20.80;99.90
24614;DHT22;12760;46.296;25.290;2022-08-19T01:52:50;20.80;99.90
24614;DHT22;12760;46.296;25.290;2022-08-19T01:55:19;20.80;99.90
24614;DHT22;12760;46.296;25.290;2022-08-19T01:57:53;20.70;99.90
24614;DHT22;12760;46.296;25.290;2022-08-19T02:00:22;20.70;99.90
24614;DHT22;12760;46.296;25.290;2022-08-19T02:02:49;20.70;99.90
24614;DHT22;12760;46.296;25.290;2022-08-19T02:05:14;20.70;99.90
24614;DHT22;12760;46.296;25.290;2022-08-19T02:07:41;20.70;99.90
24614;DHT22;12760;46.296;25.290;2022-08-19T02:10:12;20.70;99.90
24614;DHT22;12760;46.296;25.290;2022-08-19T02:12:39;20.70;99.90
24614;DHT22;12760;46.296;25.290;2022-08-19T02:15:05;20.70;99.90
24614;DHT22;12760;46.296;25.290;2022-08-19T02:17:32;20.70;99.90
24614;DHT22;12760;46.296;25.290;2022-08-19T02:19:58;20.80;99.90
24614;DHT22;12760;46.296;25.290;2022-08-19T02:22:25;20.80;99.90
24614;DHT22;12760;46.296;25.290;2022-08-19T02:24:52;20.80;99.90
24614;DHT22;12760;46.296;25.290;2022-08-19T02:27:18;20.80;99.90
24614;DHT22;12760;46.296;25.290;2022-08-19T02:29:46;20.70;99.90
24614;DHT22;12760;46.296;25.290;2022-08-19T02:32:12;20.70;99.90
24614;DHT22;12760;46.296;25.290;2022-08-19T02:34:39;20.70;99.90
24614;DHT22;12760;46.296;25.290;2022-08-19T02:37:04;20.60;99.90
24614;DHT22;12760;46.296;25.290;2022-08-19T02:39:30;20.50;99.90
24614;DHT22;12760;46.296;25.290;2022-08-19T02:41:56;20.40;99.90
24614;DHT22;12760;46.296;25.290;2022-08-19T02:44:23;20.30;99.90
24614;DHT22;12760;46.296;25.290;2022-08-19T02:46:48;20.30;99.90
24614;DHT22;12760;46.296;25.290;2022-08-19T02:49:15;20.30;99.90
24614;DHT22;12760;46.296;25.290;2022-08-19T02:51:43;20.20;99.90
24614;DHT22;12760;46.296;25.290;2022-08-19T02:54:11;20.20;99.90
24614;DHT22;12760;46.296;25.290;2022-08-19T02:56:40;20.20;99.90
24614;DHT22;12760;46.296;25.290;2022-08-19T02:59:06;20.10;99.90
24614;DHT22;12760;46.296;25.290;2022-08-19T03:01:38;19.90;99.90
24614;DHT22;12760;46.296;25.290;2022-08-19T03:04:06;19.80;99.90
24614;DHT22;12760;46.296;25.290;2022-08-19T03:06:36;20.00;99.90
24614;DHT22;12760;46.296;25.290;2022-08-19T03:09:02;20.00;99.90
24614;DHT22;12760;46.296;25.290;2022-08-19T03:11:30;20.00;99.90
24614;DHT22;12760;46.296;25.290;2022-08-19T03:13:57;20.00;99.90
24614;DHT22;12760;46.296;25.290;2022-08-19T03:16:25;20.00;99.90
24614;DHT22;12760;46.296;25.290;2022-08-19T03:18:52;19.90;99.90
24614;DHT22;12760;46.296;25.290;2022-08-19T03:21:21;19.90;99.90
24614;DHT22;12760;46.296;25.290;2022-08-19T03:23:48;19.80;99.90
24614;DHT22;12760;46.296;25.290;2022-08-19T03:26:14;19.70;99.90
24614;DHT22;12760;46.296;25.290;2022-08-19T03:28:41;19.70;99.90
24614;DHT22;12760;46.296;25.290;2022-08-19T03:31:12;19.70;99.90
24614;DHT22;12760;46.296;25.290;2022-08-19T03:33:38;19.70;99.90
24614;DHT22;12760;46.296;25.290;2022-08-19T03:38:30;19.70;99.90
24614;DHT22;12760;46.296;25.290;2022-08-19T03:40:57;19.60;99.90
24614;DHT22;12760;46.296;25.290;2022-08-19T03:43:23;19.50;99.90
24614;DHT22;12760;46.296;25.290;2022-08-19T03:45:59;19.40;99.90
24614;DHT22;12760;46.296;25.290;2022-08-19T03:48:25;19.40;99.90
24614;DHT22;12760;46.296;25.290;2022-08-19T03:50:51;19.40;99.90
24614;DHT22;12760;46.296;25.290;2022-08-19T03:53:17;19.50;99.90
24614;DHT22;12760;46.296;25.290;2022-08-19T03:55:42;19.60;99.90
24614;DHT22;12760;46.296;25.290;2022-08-19T03:58:08;19.70;99.90
24614;DHT22;12760;46.296;25.290;2022-08-19T04:00:34;19.70;99.90
24614;DHT22;12760;46.296;25.290;2022-08-19T04:02:59;19.80;99.90
24614;DHT22;12760;46.296;25.290;2022-08-19T04:05:27;19.80;99.90
24614;DHT22;12760;46.296;25.290;2022-08-19T04:07:54;19.80;99.90
24614;DHT22;12760;46.296;25.290;2022-08-19T04:10:24;19.80;99.90
24614;DHT22;12760;46.296;25.290;2022-08-19T04:12:50;19.70;99.90
24614;DHT22;12760;46.296;25.290;2022-08-19T04:15:15;19.80;99.90
24614;DHT22;12760;46.296;25.290;2022-08-19T04:17:41;19.70;99.90
24614;DHT22;12760;46.296;25.290;2022-08-19T04:20:07;19.70;99.90
24614;DHT22;12760;46.296;25.290;2022-08-19T04:22:33;19.70;99.90
24614;DHT22;12760;46.296;25.290;2022-08-19T04:24:59;19.70;99.90
24614;DHT22;12760;46.296;25.290;2022-08-19T04:27:24;19.70;99.90
24614;DHT22;12760;46.296;25.290;2022-08-19T04:29:50;19.80;99.90
24614;DHT22;12760;46.296;25.290;2022-08-19T04:32:17;19.80;99.90
24614;DHT22;12760;46.296;25.290;2022-08-19T04:34:43;19.80;99.90
24614;DHT22;12760;46.296;25.290;2022-08-19T04:37:09;19.80;99.90
24614;DHT22;12760;46.296;25.290;2022-08-19T04:39:38;19.80;99.90
24614;DHT22;12760;46.296;25.290;2022-08-19T04:42:23;19.80;99.90
24614;DHT22;12760;46.296;25.290;2022-08-19T04:45:10;19.80;99.90
24614;DHT22;12760;46.296;25.290;2022-08-19T04:47:40;19.90;99.90
24614;DHT22;12760;46.296;25.290;2022-08-19T04:50:07;19.90;99.90
24614;DHT22;12760;46.296;25.290;2022-08-19T04:52:34;20.00;99.90
24614;DHT22;12760;46.296;25.290;2022-08-19T04:55:00;20.00;99.90
24614;DHT22;12760;46.296;25.290;2022-08-19T04:57:26;20.00;99.90
24614;DHT22;12760;46.296;25.290;2022-08-19T04:59:56;20.10;99.90
24614;DHT22;12760;46.296;25.290;2022-08-19T05:02:22;20.10;99.90
24614;DHT22;12760;46.296;25.290;2022-08-19T05:04:56;20.10;99.90
24614;DHT22;12760;46.296;25.290;2022-08-19T05:07:22;20.20;99.90
24614;DHT22;12760;46.296;25.290;2022-08-19T05:09:48;20.20;99.90
24614;DHT22;12760;46.296;25.290;2022-08-19T05:12:14;20.20;99.90
24614;DHT22;12760;46.296;25.290;2022-08-19T05:14:40;20.20;99.90
24614;DHT22;12760;46.296;25.290;2022-08-19T05:17:06;20.20;99.90
24614;DHT22;12760;46.296;25.290;2022-08-19T05:19:32;20.20;99.90
24614;DHT22;12760;46.296;25.290;2022-08-19T05:22:16;20.30;99.90
24614;DHT22;12760;46.296;25.290;2022-08-19T05:24:59;20.40;99.90
24614;DHT22;12760;46.296;25.290;2022-08-19T05:27:28;20.40;99.90
24614;DHT22;12760;46.296;25.290;2022-08-19T05:29:54;20.40;99.90
24614;DHT22;12760;46.296;25.290;2022-08-19T05:32:19;20.40;99.90
24614;DHT22;12760;46.296;25.290;2022-08-19T05:34:47;20.50;99.90
24614;DHT22;12760;46.296;25.290;2022-08-19T05:37:12;20.50;99.90
24614;DHT22;12760;46.296;25.290;2022-08-19T05:39:38;20.60;99.90
24614;DHT22;12760;46.296;25.290;2022-08-19T05:42:08;20.60;99.90
24614;DHT22;12760;46.296;25.290;2022-08-19T05:44:37;20.60;99.90
24614;DHT22;12760;46.296;25.290;2022-08-19T05:47:05;20.60;99.90
24614;DHT22;12760;46.296;25.290;2022-08-19T05:49:32;20.60;99.90
24614;DHT22;12760;46.296;25.290;2022-08-19T05:52:01;20.60;99.90
24614;DHT22;12760;46.296;25.290;2022-08-19T05:54:27;20.80;99.90
24614;DHT22;12760;46.296;25.290;2022-08-19T05:56:53;20.90;99.90
24614;DHT22;12760;46.296;25.290;2022-08-19T05:59:20;21.00;99.90
24614;DHT22;12760;46.296;25.290;2022-08-19T06:01:47;21.20;99.90
24614;DHT22;12760;46.296;25.290;2022-08-19T06:04:19;21.40;99.90
24614;DHT22;12760;46.296;25.290;2022-08-19T06:06:47;21.50;99.90
24614;DHT22;12760;46.296;25.290;2022-08-19T06:09:13;21.80;99.90
24614;DHT22;12760;46.296;25.290;2022-08-19T06:11:45;22.00;99.90
24614;DHT22;12760;46.296;25.290;2022-08-19T06:14:18;22.30;99.90
24614;DHT22;12760;46.296;25.290;2022-08-19T06:16:45;22.50;99.90
24614;DHT22;12760;46.296;25.290;2022-08-19T06:19:14;22.60;99.90
24614;DHT22;12760;46.296;25.290;2022-08-19T06:21:43;22.90;99.90
24614;DHT22;12760;46.296;25.290;2022-08-19T06:24:13;23.00;99.90
24614;DHT22;12760;46.296;25.290;2022-08-19T06:26:43;23.20;99.90
24614;DHT22;12760;46.296;25.290;2022-08-19T06:29:10;23.40;99.90
24614;DHT22;12760;46.296;25.290;2022-08-19T06:31:36;23.50;99.90
24614;DHT22;12760;46.296;25.290;2022-08-19T06:34:05;23.60;99.90
24614;DHT22;12760;46.296;25.290;2022-08-19T06:36:37;23.80;99.90
24614;DHT22;12760;46.296;25.290;2022-08-19T06:39:07;24.00;99.90
24614;DHT22;12760;46.296;25.290;2022-08-19T06:41:44;24.10;99.90
24614;DHT22;12760;46.296;25.290;2022-08-19T06:44:11;24.30;99.90
24614;DHT22;12760;46.296;25.290;2022-08-19T06:46:39;24.50;99.90
24614;DHT22;12760;46.296;25.290;2022-08-19T06:49:05;24.70;99.90
24614;DHT22;12760;46.296;25.290;2022-08-19T06:51:32;24.90;99.90
24614;DHT22;12760;46.296;25.290;2022-08-19T06:53:58;24.90;99.90
24614;DHT22;12760;46.296;25.290;2022-08-19T06:56:27;25.20;99.90
24614;DHT22;12760;46.296;25.290;2022-08-19T06:59:14;25.30;99.90
24614;DHT22;12760;46.296;25.290;2022-08-19T07:01:49;25.50;99.90
24614;DHT22;12760;46.296;25.290;2022-08-19T07:04:17;25.60;99.90
24614;DHT22;12760;46.296;25.290;2022-08-19T07:06:43;25.80;99.90
24614;DHT22;12760;46.296;25.290;2022-08-19T07:09:14;25.90;99.90
24614;DHT22;12760;46.296;25.290;2022-08-19T07:11:45;26.10;99.90
24614;DHT22;12760;46.296;25.290;2022-08-19T07:14:11;26.20;99.90
24614;DHT22;12760;46.296;25.290;2022-08-19T07:16:37;26.40;99.90
24614;DHT22;12760;46.296;25.290;2022-08-19T07:19:03;26.50;99.90
24614;DHT22;12760;46.296;25.290;2022-08-19T07:21:29;26.60;99.90
24614;DHT22;12760;46.296;25.290;2022-08-19T07:23:56;26.80;99.90
24614;DHT22;12760;46.296;25.290;2022-08-19T07:26:27;27.10;99.90
24614;DHT22;12760;46.296;25.290;2022-08-19T07:28:53;27.20;99.90
24614;DHT22;12760;46.296;25.290;2022-08-19T07:31:24;27.50;99.90
24614;DHT22;12760;46.296;25.290;2022-08-19T07:33:52;27.70;99.90
24614;DHT22;12760;46.296;25.290;2022-08-19T07:36:21;27.70;99.90
24614;DHT22;12760;46.296;25.290;2022-08-19T07:38:49;27.80;99.90
24614;DHT22;12760;46.296;25.290;2022-08-19T07:41:19;27.90;99.90
24614;DHT22;12760;46.296;25.290;2022-08-19T07:43:45;28.10;99.90
24614;DHT22;12760;46.296;25.290;2022-08-19T07:46:12;28.10;99.90
24614;DHT22;12760;46.296;25.290;2022-08-19T07:48:43;28.10;99.90
24614;DHT22;12760;46.296;25.290;2022-08-19T07:51:14;28.20;99.90
24614;DHT22;12760;46.296;25.290;2022-08-19T07:53:40;28.30;99.90
24614;DHT22;12760;46.296;25.290;2022-08-19T07:56:06;28.50;99.90
24614;DHT22;12760;46.296;25.290;2022-08-19T07:58:40;28.60;99.90
24614;DHT22;12760;46.296;25.290;2022-08-19T08:01:09;28.80;99.90
24614;DHT22;12760;46.296;25.290;2022-08-19T08:03:36;28.90;99.90
24614;DHT22;12760;46.296;25.290;2022-08-19T08:06:21;29.00;99.90
24614;DHT22;12760;46.296;25.290;2022-08-19T08:09:09;29.10;99.90
24614;DHT22;12760;46.296;25.290;2022-08-19T08:11:45;29.00;99.90
24614;DHT22;12760;46.296;25.290;2022-08-19T08:14:18;29.10;99.90
24614;DHT22;12760;46.296;25.290;2022-08-19T08:17:04;29.30;99.90
24614;DHT22;12760;46.296;25.290;2022-08-19T08:19:33;29.40;99.90
24614;DHT22;12760;46.296;25.290;2022-08-19T08:22:01;29.60;99.90
24614;DHT22;12760;46.296;25.290;2022-08-19T08:24:29;29.70;99.90
24614;DHT22;12760;46.296;25.290;2022-08-19T08:27:00;29.70;99.90
24614;DHT22;12760;46.296;25.290;2022-08-19T08:29:30;29.80;99.90
24614;DHT22;12760;46.296;25.290;2022-08-19T08:31:59;29.90;99.90
24614;DHT22;12760;46.296;25.290;2022-08-19T08:34:25;30.00;99.90
24614;DHT22;12760;46.296;25.290;2022-08-19T08:36:51;30.10;99.90
24614;DHT22;12760;46.296;25.290;2022-08-19T08:39:19;30.20;99.90
24614;DHT22;12760;46.296;25.290;2022-08-19T08:47:52;30.50;99.90
24614;DHT22;12760;46.296;25.290;2022-08-19T08:50:29;30.60;99.90
24614;DHT22;12760;46.296;25.290;2022-08-19T08:53:01;30.60;99.90
24614;DHT22;12760;46.296;25.290;2022-08-19T08:55:29;30.70;99.90
24614;DHT22;12760;46.296;25.290;2022-08-19T09:00:28;30.80;99.90
24614;DHT22;12760;46.296;25.290;2022-08-19T09:02:56;30.90;99.90
24614;DHT22;12760;46.296;25.290;2022-08-19T09:05:30;31.00;99.90
24614;DHT22;12760;46.296;25.290;2022-08-19T09:16:10;31.20;99.90
24614;DHT22;12760;46.296;25.290;2022-08-19T09:18:50;31.20;99.90
24614;DHT22;12760;46.296;25.290;2022-08-19T09:21:21;31.30;99.90
24614;DHT22;12760;46.296;25.290;2022-08-19T09:23:48;31.30;99.90
24614;DHT22;12760;46.296;25.290;2022-08-19T09:26:16;31.40;99.90
24614;DHT22;12760;46.296;25.290;2022-08-19T09:28:44;31.50;99.90
24614;DHT22;12760;46.296;25.290;2022-08-19T09:31:11;31.50;99.90
24614;DHT22;12760;46.296;25.290;2022-08-19T09:33:38;31.40;99.90
24614;DHT22;12760;46.296;25.290;2022-08-19T09:36:06;31.20;99.20
24614;DHT22;12760;46.296;25.290;2022-08-19T09:38:33;31.20;99.60
24614;DHT22;12760;46.296;25.290;2022-08-19T09:41:07;31.20;99.60
24614;DHT22;12760;46.296;25.290;2022-08-19T09:43:34;31.40;99.90
24614;DHT22;12760;46.296;25.290;2022-08-19T09:46:05;31.40;98.70
24614;DHT22;12760;46.296;25.290;2022-08-19T09:48:36;31.60;99.50
24614;DHT22;12760;46.296;25.290;2022-08-19T09:51:06;31.70;98.90
24614;DHT22;12760;46.296;25.290;2022-08-19T09:53:34;31.80;98.70
24614;DHT22;12760;46.296;25.290;2022-08-19T09:56:00;31.90;97.70
24614;DHT22;12760;46.296;25.290;2022-08-19T09:58:26;31.90;97.60
24614;DHT22;12760;46.296;25.290;2022-08-19T10:00:54;31.90;97.30
24614;DHT22;12760;46.296;25.290;2022-08-19T10:03:21;31.80;97.30
24614;DHT22;12760;46.296;25.290;2022-08-19T10:05:46;31.80;97.50
24614;DHT22;12760;46.296;25.290;2022-08-19T10:08:27;32.00;97.70
24614;DHT22;12760;46.296;25.290;2022-08-19T10:10:54;32.10;98.40
24614;DHT22;12760;46.296;25.290;2022-08-19T10:13:22;31.90;96.90
24614;DHT22;12760;46.296;25.290;2022-08-19T10:15:51;31.90;98.10
24614;DHT22;12760;46.296;25.290;2022-08-19T10:18:19;31.90;96.90
24614;DHT22;12760;46.296;25.290;2022-08-19T10:20:49;31.90;96.30
24614;DHT22;12760;46.296;25.290;2022-08-19T10:23:16;31.80;96.80
24614;DHT22;12760;46.296;25.290;2022-08-19T10:25:42;31.80;96.80
24614;DHT22;12760;46.296;25.290;2022-08-19T10:28:08;31.90;97.20
24614;DHT22;12760;46.296;25.290;2022-08-19T10:30:37;32.10;96.90
24614;DHT22;12760;46.296;25.290;2022-08-19T10:33:03;32.00;95.50
24614;DHT22;12760;46.296;25.290;2022-08-19T10:35:28;32.10;96.10
24614;DHT22;12760;46.296;25.290;2022-08-19T10:37:55;32.10;96.40
24614;DHT22;12760;46.296;25.290;2022-08-19T10:40:26;32.20;95.70
24614;DHT22;12760;46.296;25.290;2022-08-19T10:42:53;32.10;95.80
24614;DHT22;12760;46.296;25.290;2022-08-19T10:45:19;32.20;97.00
24614;DHT22;12760;46.296;25.290;2022-08-19T10:47:47;32.20;96.30
24614;DHT22;12760;46.296;25.290;2022-08-19T10:50:13;32.20;95.40
24614;DHT22;12760;46.296;25.290;2022-08-19T10:52:57;32.20;95.50
24614;DHT22;12760;46.296;25.290;2022-08-19T10:55:24;32.20;95.80
24614;DHT22;12760;46.296;25.290;2022-08-19T10:58:17;32.20;95.70
24614;DHT22;12760;46.296;25.290;2022-08-19T11:00:43;32.30;95.60
24614;DHT22;12760;46.296;25.290;2022-08-19T11:03:09;32.20;95.30
24614;DHT22;12760;46.296;25.290;2022-08-19T11:05:35;32.20;95.50
24614;DHT22;12760;46.296;25.290;2022-08-19T11:08:03;32.20;95.80
24614;DHT22;12760;46.296;25.290;2022-08-19T11:10:28;32.10;95.40
24614;DHT22;12760;46.296;25.290;2022-08-19T11:12:54;32.20;95.80
24614;DHT22;12760;46.296;25.290;2022-08-19T11:15:21;32.30;95.50
24614;DHT22;12760;46.296;25.290;2022-08-19T11:17:51;32.30;95.30
24614;DHT22;12760;46.296;25.290;2022-08-19T11:20:19;32.40;95.60
24614;DHT22;12760;46.296;25.290;2022-08-19T11:22:45;32.40;95.10
24614;DHT22;12760;46.296;25.290;2022-08-19T11:25:11;32.40;95.40
24614;DHT22;12760;46.296;25.290;2022-08-19T11:27:39;32.50;95.80
24614;DHT22;12760;46.296;25.290;2022-08-19T11:30:07;32.50;94.80
24614;DHT22;12760;46.296;25.290;2022-08-19T11:32:33;32.50;95.40
24614;DHT22;12760;46.296;25.290;2022-08-19T11:34:59;32.40;94.60
24614;DHT22;12760;46.296;25.290;2022-08-19T11:37:25;32.50;95.60
24614;DHT22;12760;46.296;25.290;2022-08-19T11:39:51;32.50;94.30
24614;DHT22;12760;46.296;25.290;2022-08-19T11:42:17;32.60;95.60
24614;DHT22;12760;46.296;25.290;2022-08-19T11:45:02;32.60;94.60
24614;DHT22;12760;46.296;25.290;2022-08-19T11:47:29;32.70;94.90
24614;DHT22;12760;46.296;25.290;2022-08-19T11:49:56;32.70;94.30
24614;DHT22;12760;46.296;25.290;2022-08-19T11:52:22;32.70;94.00
24614;DHT22;12760;46.296;25.290;2022-08-19T11:54:47;32.70;94.40
24614;DHT22;12760;46.296;25.290;2022-08-19T11:57:14;32.70;94.70
24614;DHT22;12760;46.296;25.290;2022-08-19T11:59:47;32.70;93.90
24614;DHT22;12760;46.296;25.290;2022-08-19T12:02:13;32.80;94.30
24614;DHT22;12760;46.296;25.290;2022-08-19T12:04:40;32.90;93.80
24614;DHT22;12760;46.296;25.290;2022-08-19T12:07:06;32.90;93.60
24614;DHT22;12760;46.296;25.290;2022-08-19T12:09:32;32.90;93.50
24614;DHT22;12760;46.296;25.290;2022-08-19T12:12:00;32.90;93.80
24614;DHT22;12760;46.296;25.290;2022-08-19T12:14:27;32.90;93.30
24614;DHT22;12760;46.296;25.290;2022-08-19T12:16:55;32.90;93.90
24614;DHT22;12760;46.296;25.290;2022-08-19T12:19:21;32.90;93.50
24614;DHT22;12760;46.296;25.290;2022-08-19T12:21:47;32.90;93.50
24614;DHT22;12760;46.296;25.290;2022-08-19T12:24:13;32.80;94.40
24614;DHT22;12760;46.296;25.290;2022-08-19T12:26:42;32.80;93.00
24614;DHT22;12760;46.296;25.290;2022-08-19T12:29:07;32.80;93.20
24614;DHT22;12760;46.296;25.290;2022-08-19T12:31:33;32.90;92.70
24614;DHT22;12760;46.296;25.290;2022-08-19T12:34:00;32.80;92.40
24614;DHT22;12760;46.296;25.290;2022-08-19T12:36:26;32.70;93.50
24614;DHT22;12760;46.296;25.290;2022-08-19T12:38:52;32.70;92.40
24614;DHT22;12760;46.296;25.290;2022-08-19T12:41:18;32.80;93.30
24614;DHT22;12760;46.296;25.290;2022-08-19T12:43:47;32.80;93.00
24614;DHT22;12760;46.296;25.290;2022-08-19T12:46:14;32.80;93.20
24614;DHT22;12760;46.296;25.290;2022-08-19T12:48:40;32.90;93.50
24614;DHT22;12760;46.296;25.290;2022-08-19T12:51:13;32.70;92.60
24614;DHT22;12760;46.296;25.290;2022-08-19T12:53:39;32.60;92.30
24614;DHT22;12760;46.296;25.290;2022-08-19T12:56:06;32.70;93.00
24614;DHT22;12760;46.296;25.290;2022-08-19T12:58:32;32.70;93.60
24614;DHT22;12760;46.296;25.290;2022-08-19T13:01:07;32.70;92.50
24614;DHT22;12760;46.296;25.290;2022-08-19T13:03:33;32.80;93.40
24614;DHT22;12760;46.296;25.290;2022-08-19T13:05:58;32.80;93.30
24614;DHT22;12760;46.296;25.290;2022-08-19T13:08:24;32.90;92.60
24614;DHT22;12760;46.296;25.290;2022-08-19T13:10:50;33.00;92.70
24614;DHT22;12760;46.296;25.290;2022-08-19T13:13:16;33.00;91.70
24614;DHT22;12760;46.296;25.290;2022-08-19T13:15:42;32.90;91.50
24614;DHT22;12760;46.296;25.290;2022-08-19T13:18:10;32.90;92.60
24614;DHT22;12760;46.296;25.290;2022-08-19T13:20:40;32.90;91.50
24614;DHT22;12760;46.296;25.290;2022-08-19T13:23:09;32.90;92.20
24614;DHT22;12760;46.296;25.290;2022-08-19T13:25:38;32.80;91.70
24614;DHT22;12760;46.296;25.290;2022-08-19T13:28:04;32.80;92.20
24614;DHT22;12760;46.296;25.290;2022-08-19T13:30:32;32.80;92.20
24614;DHT22;12760;46.296;25.290;2022-08-19T13:33:17;32.80;91.60
24614;DHT22;12760;46.296;25.290;2022-08-19T13:35:47;32.90;92.10
24614;DHT22;12760;46.296;25.290;2022-08-19T13:38:15;32.90;92.00
24614;DHT22;12760;46.296;25.290;2022-08-19T13:40:41;32.90;92.60
24614;DHT22;12760;46.296;25.290;2022-08-19T13:43:08;33.00;92.60
24614;DHT22;12760;46.296;25.290;2022-08-19T13:45:35;33.00;92.90
24614;DHT22;12760;46.296;25.290;2022-08-19T13:48:03;33.00;91.90
24614;DHT22;12760;46.296;25.290;2022-08-19T13:50:37;33.00;92.40
24614;DHT22;12760;46.296;25.290;2022-08-19T13:53:03;32.90;91.90
24614;DHT22;12760;46.296;25.290;2022-08-19T13:55:32;32.80;91.70
24614;DHT22;12760;46.296;25.290;2022-08-19T13:58:00;32.80;91.80
24614;DHT22;12760;46.296;25.290;2022-08-19T14:00:32;32.80;91.50
24614;DHT22;12760;46.296;25.290;2022-08-19T14:03:03;32.70;91.40
24614;DHT22;12760;46.296;25.290;2022-08-19T14:05:30;32.70;91.90
24614;DHT22;12760;46.296;25.290;2022-08-19T14:07:56;32.70;92.20
24614;DHT22;12760;46.296;25.290;2022-08-19T14:10:26;32.60;92.10
24614;DHT22;12760;46.296;25.290;2022-08-19T14:12:56;32.70;91.80
24614;DHT22;12760;46.296;25.290;2022-08-19T14:15:24;32.70;91.40
24614;DHT22;12760;46.296;25.290;2022-08-19T14:17:50;32.60;91.60
24614;DHT22;12760;46.296;25.290;2022-08-19T14:20:16;32.60;92.10
24614;DHT22;12760;46.296;25.290;2022-08-19T14:22:44;32.60;92.10
24614;DHT22;12760;46.296;25.290;2022-08-19T14:25:13;32.60;92.10
24614;DHT22;12760;46.296;25.290;2022-08-19T14:27:40;32.50;91.40
24614;DHT22;12760;46.296;25.290;2022-08-19T14:30:09;32.50;92.40
24614;DHT22;12760;46.296;25.290;2022-08-19T14:32:35;32.50;92.40
24614;DHT22;12760;46.296;25.290;2022-08-19T14:35:02;32.40;92.00
24614;DHT22;12760;46.296;25.290;2022-08-19T14:37:28;32.50;92.30
24614;DHT22;12760;46.296;25.290;2022-08-19T14:39:53;32.40;92.00
24614;DHT22;12760;46.296;25.290;2022-08-19T14:42:19;32.40;92.50
24614;DHT22;12760;46.296;25.290;2022-08-19T14:44:45;32.40;91.90
24614;DHT22;12760;46.296;25.290;2022-08-19T14:47:11;32.40;92.80
24614;DHT22;12760;46.296;25.290;2022-08-19T14:49:37;32.40;92.10
24614;DHT22;12760;46.296;25.290;2022-08-19T14:52:04;32.30;91.70
24614;DHT22;12760;46.296;25.290;2022-08-19T14:54:30;32.30;92.00
24614;DHT22;12760;46.296;25.290;2022-08-19T14:56:56;32.30;91.90
24614;DHT22;12760;46.296;25.290;2022-08-19T14:59:22;32.30;91.50
24614;DHT22;12760;46.296;25.290;2022-08-19T15:01:47;32.30;92.40
24614;DHT22;12760;46.296;25.290;2022-08-19T15:04:15;32.20;92.80
24614;DHT22;12760;46.296;25.290;2022-08-19T15:06:44;32.20;92.80
24614;DHT22;12760;46.296;25.290;2022-08-19T15:09:10;32.20;92.90
24614;DHT22;12760;46.296;25.290;2022-08-19T15:11:36;32.20;92.80
24614;DHT22;12760;46.296;25.290;2022-08-19T15:14:03;32.20;93.30
24614;DHT22;12760;46.296;25.290;2022-08-19T15:16:31;32.20;93.10
24614;DHT22;12760;46.296;25.290;2022-08-19T15:18:58;32.20;93.00
24614;DHT22;12760;46.296;25.290;2022-08-19T15:21:26;32.20;92.20
24614;DHT22;12760;46.296;25.290;2022-08-19T15:23:52;32.20;92.10
24614;DHT22;12760;46.296;25.290;2022-08-19T15:26:19;32.10;91.70
24614;DHT22;12760;46.296;25.290;2022-08-19T15:28:45;32.10;92.30
24614;DHT22;12760;46.296;25.290;2022-08-19T15:31:12;32.10;91.80
24614;DHT22;12760;46.296;25.290;2022-08-19T15:33:38;32.10;92.60
24614;DHT22;12760;46.296;25.290;2022-08-19T15:36:10;32.10;92.80
24614;DHT22;12760;46.296;25.290;2022-08-19T15:38:37;32.10;93.40
24614;DHT22;12760;46.296;25.290;2022-08-19T15:41:21;32.00;92.90